createdAt,value
2022-09-10T00:02:02.951Z,23.19
2022-09-10T00:04:30.853Z,23.19
2022-09-10T00:06:58.691Z,23.19
2022-09-10T00:09:26.354Z,23.20
2022-09-10T00:11:54.786Z,23.18
2022-09-10T00:17:32.661Z,23.15
2022-09-10T00:20:00.518Z,23.15
2022-09-10T00:22:28.372Z,23.16
2022-09-10T00:24:57.685Z,23.14
2022-09-10T00:27:25.454Z,23.16
2022-09-10T00:29:53.170Z,23.16
2022-09-10T00:32:21.731Z,23.16
2022-09-10T00:34:49.414Z,23.17
2022-09-10T00:37:18.461Z,23.16
2022-09-10T00:39:46.165Z,23.17
2022-09-10T00:42:13.852Z,23.15
2022-09-10T00:44:41.601Z,23.17
2022-09-10T00:47:09.300Z,23.17
2022-09-10T00:49:37.008Z,23.19
2022-09-10T00:52:04.664Z,23.18
2022-09-10T00:54:32.353Z,23.18
2022-09-10T00:57:00.174Z,23.16
2022-09-10T00:59:27.818Z,23.17
2022-09-10T01:01:55.823Z,23.17
2022-09-10T01:04:23.573Z,23.18
2022-09-10T01:06:52.479Z,23.16
2022-09-10T01:09:20.175Z,23.16
2022-09-10T01:11:47.990Z,23.16
2022-09-10T01:14:16.149Z,23.17
2022-09-10T01:16:43.868Z,23.17
2022-09-10T01:19:11.597Z,23.17
2022-09-10T01:21:39.258Z,23.17
2022-09-10T01:24:06.925Z,23.15
2022-09-10T01:26:34.839Z,23.16
2022-09-10T01:29:02.494Z,23.16
2022-09-10T01:31:31.361Z,23.16
2022-09-10T01:33:59.104Z,23.16
2022-09-10T01:36:27.003Z,23.15
2022-09-10T01:38:55.558Z,23.15
2022-09-10T01:41:23.236Z,23.17
2022-09-10T01:43:50.962Z,23.17
2022-09-10T01:46:19.240Z,23.16
2022-09-10T01:48:47.194Z,23.16
2022-09-10T01:51:15.116Z,23.17
2022-09-10T01:53:42.762Z,23.17
2022-09-10T01:56:10.469Z,23.15
2022-09-10T01:58:38.503Z,23.15
2022-09-10T02:01:06.423Z,23.16
2022-09-10T02:03:34.196Z,23.15
2022-09-10T02:06:01.825Z,23.15
2022-09-10T02:08:31.169Z,23.15
2022-09-10T02:10:59.281Z,23.15
2022-09-10T02:13:27.000Z,23.15
2022-09-10T02:15:54.670Z,23.15
2022-09-10T02:18:22.582Z,23.15
2022-09-10T02:20:50.270Z,23.14
2022-09-10T02:23:18.380Z,23.14
2022-09-10T02:25:46.083Z,23.13
2022-09-10T02:28:13.769Z,23.13
2022-09-10T02:30:41.608Z,23.14
2022-09-10T02:33:09.260Z,23.14
2022-09-10T02:35:37.094Z,23.13
2022-09-10T02:38:05.841Z,23.13
2022-09-10T02:40:33.821Z,23.12
2022-09-10T02:43:01.759Z,23.13
2022-09-10T02:45:29.492Z,23.13
2022-09-10T02:47:57.272Z,23.12
2022-09-10T02:50:25.280Z,23.11
2022-09-10T02:52:53.898Z,23.13
2022-09-10T02:55:21.616Z,23.13
2022-09-10T02:57:49.428Z,23.13
2022-09-10T03:00:17.082Z,23.12
2022-09-10T03:02:44.798Z,23.13
2022-09-10T03:05:12.798Z,23.13
2022-09-10T03:07:40.457Z,23.13
2022-09-10T03:10:08.454Z,23.13
2022-09-10T03:12:36.707Z,23.13
2022-09-10T03:15:04.996Z,23.13
2022-09-10T03:17:32.873Z,23.13
2022-09-10T03:20:00.573Z,23.13
2022-09-10T03:22:28.506Z,23.11
2022-09-10T03:24:56.243Z,23.12
2022-09-10T03:27:24.051Z,23.13
2022-09-10T03:29:51.994Z,23.13
2022-09-10T03:32:19.709Z,23.13
2022-09-10T03:34:47.509Z,23.10
2022-09-10T03:37:15.355Z,23.11
2022-09-10T03:39:43.550Z,23.11
2022-09-10T03:42:11.275Z,23.10
2022-09-10T03:44:38.971Z,23.10
2022-09-10T03:47:06.782Z,23.11
2022-09-10T03:49:34.472Z,23.11
2022-09-10T03:52:04.610Z,23.10
2022-09-10T03:54:32.296Z,23.10
2022-09-10T03:57:03.170Z,23.10
2022-09-10T03:59:31.216Z,23.09
2022-09-10T04:01:59.296Z,23.09
2022-09-10T04:04:27.176Z,23.10
2022-09-10T04:06:55.078Z,23.10
2022-09-10T04:09:22.839Z,23.10
2022-09-10T04:11:50.695Z,23.10
2022-09-10T04:14:19.567Z,23.09
2022-09-10T04:16:47.505Z,23.10
2022-09-10T04:19:15.753Z,23.11
2022-09-10T04:21:43.510Z,23.09
2022-09-10T04:24:11.212Z,23.11
2022-09-10T04:26:39.671Z,23.09
2022-09-10T04:29:07.592Z,23.10
2022-09-10T04:31:35.352Z,23.10
2022-09-10T04:34:03.290Z,23.09
2022-09-10T04:36:31.021Z,23.09
2022-09-10T04:38:59.954Z,23.10
2022-09-10T04:41:27.708Z,23.10
2022-09-10T04:43:55.451Z,23.10
2022-09-10T04:46:23.749Z,23.09
2022-09-10T04:48:52.275Z,23.09
2022-09-10T04:51:19.976Z,23.09
2022-09-10T04:53:47.768Z,23.08
2022-09-10T04:56:15.542Z,23.09
2022-09-10T04:58:44.135Z,23.09
2022-09-10T05:01:12.278Z,23.09
2022-09-10T05:03:40.191Z,23.09
2022-09-10T05:06:07.977Z,23.10
2022-09-10T05:08:36.639Z,23.10
2022-09-10T05:11:04.376Z,23.10
2022-09-10T05:13:32.143Z,23.10
2022-09-10T05:15:59.912Z,23.11
2022-09-10T05:18:27.563Z,23.13
2022-09-10T05:20:55.431Z,23.12
2022-09-10T05:23:23.289Z,23.11
2022-09-10T05:25:51.444Z,23.12
2022-09-10T05:28:20.895Z,23.13
2022-09-10T05:30:51.745Z,23.13
2022-09-10T05:33:19.736Z,23.12
2022-09-10T05:35:47.803Z,23.11
2022-09-10T05:38:15.488Z,23.14
2022-09-10T05:40:43.333Z,23.13
2022-09-10T05:43:12.299Z,23.14
2022-09-10T05:45:40.130Z,23.15
2022-09-10T05:48:07.801Z,23.16
2022-09-10T05:50:35.668Z,23.17
2022-09-10T05:53:03.385Z,23.15
2022-09-10T05:55:33.249Z,23.15
2022-09-10T05:58:01.231Z,23.15
2022-09-10T06:00:29.104Z,23.15
2022-09-10T06:02:57.491Z,23.16
2022-09-10T06:05:25.259Z,23.15
2022-09-10T06:07:52.945Z,23.17
2022-09-10T06:10:21.020Z,23.17
2022-09-10T06:12:49.657Z,23.17
2022-09-10T06:15:17.341Z,23.16
2022-09-10T06:17:45.027Z,23.16
2022-09-10T06:20:16.025Z,23.15
2022-09-10T06:22:43.737Z,23.15
2022-09-10T06:25:11.406Z,23.15
2022-09-10T06:27:39.200Z,23.15
2022-09-10T06:30:06.887Z,23.19
2022-09-10T06:32:34.580Z,23.18
2022-09-10T06:35:02.292Z,23.20
2022-09-10T06:37:34.489Z,23.18
2022-09-10T06:40:02.328Z,23.18
2022-09-10T06:42:32.152Z,23.20
2022-09-10T06:45:00.331Z,23.21
2022-09-10T06:48:18.848Z,23.21
2022-09-10T06:50:15.855Z,23.20
2022-09-10T06:52:43.785Z,23.22
2022-09-10T06:55:11.865Z,23.23
2022-09-10T06:57:40.066Z,23.25
2022-09-10T07:00:07.886Z,23.26
2022-09-10T07:02:35.795Z,23.28
2022-09-10T07:05:03.659Z,23.26
2022-09-10T07:07:31.469Z,23.26
2022-09-10T07:09:59.227Z,23.26
2022-09-10T07:12:27.432Z,23.26
2022-09-10T07:14:55.146Z,23.26
2022-09-10T07:17:22.788Z,23.24
2022-09-10T07:19:50.672Z,23.24
2022-09-10T07:22:18.299Z,23.25
2022-09-10T07:24:46.621Z,23.25
2022-09-10T07:27:14.281Z,23.27
2022-09-10T07:29:43.002Z,23.29
2022-09-10T07:32:13.530Z,23.27
2022-09-10T07:34:41.595Z,23.28
2022-09-10T07:37:09.253Z,23.31
2022-09-10T07:39:37.081Z,23.31
2022-09-10T07:42:04.814Z,23.30
2022-09-10T07:44:32.510Z,23.30
2022-09-10T07:47:01.340Z,23.31
2022-09-10T07:49:29.342Z,23.31
2022-09-10T07:52:00.002Z,23.34
2022-09-10T07:54:28.524Z,23.33
2022-09-10T07:56:56.233Z,23.33
2022-09-10T07:59:23.896Z,23.31
2022-09-10T08:01:51.601Z,23.31
2022-09-10T08:04:19.325Z,23.32
2022-09-10T08:06:47.249Z,23.30
2022-09-10T08:09:15.496Z,23.31
2022-09-10T08:11:43.115Z,23.33
2022-09-10T08:14:10.793Z,23.32
2022-09-10T08:16:41.306Z,23.32
2022-09-10T08:19:13.867Z,23.31
2022-09-10T08:21:41.584Z,23.32
2022-09-10T08:24:09.542Z,23.33
2022-09-10T08:26:37.284Z,23.34
2022-09-10T08:29:05.296Z,23.35
2022-09-10T08:31:32.952Z,23.36
2022-09-10T08:34:01.613Z,23.37
2022-09-10T08:36:29.278Z,23.35
2022-09-10T08:39:01.402Z,23.35
2022-09-10T08:41:31.339Z,23.35
2022-09-10T08:43:59.071Z,23.34
2022-09-10T08:46:26.762Z,23.34
2022-09-10T08:48:55.123Z,23.36
2022-09-10T08:51:25.276Z,23.39
2022-09-10T08:53:52.951Z,23.38
2022-09-10T08:56:20.721Z,23.36
2022-09-10T08:58:48.380Z,23.38
2022-09-10T09:01:16.383Z,23.38
2022-09-10T09:03:45.165Z,23.39
2022-09-10T09:06:14.840Z,23.36
2022-09-10T09:08:43.215Z,23.37
2022-09-10T09:11:11.918Z,23.35
2022-09-10T09:13:39.605Z,23.35
2022-09-10T09:16:07.335Z,23.37
2022-09-10T09:18:34.981Z,23.36
2022-09-10T09:21:02.734Z,23.34
2022-09-10T09:23:31.103Z,23.35
2022-09-10T09:25:59.141Z,23.38
2022-09-10T09:28:27.166Z,23.36
2022-09-10T09:30:56.981Z,23.37
2022-09-10T09:33:25.255Z,23.36
2022-09-10T09:35:54.041Z,23.37
2022-09-10T09:38:22.256Z,23.37
2022-09-10T09:40:50.094Z,23.36
2022-09-10T09:43:18.093Z,23.36
2022-09-10T09:45:47.364Z,23.36
2022-09-10T09:48:15.914Z,23.35
2022-09-10T09:50:43.568Z,23.33
2022-09-10T09:53:11.278Z,23.33
2022-09-10T09:55:38.900Z,23.33
2022-09-10T09:58:06.626Z,23.33
2022-09-10T10:00:34.531Z,23.34
2022-09-10T10:03:02.411Z,23.34
2022-09-10T10:05:30.133Z,23.34
2022-09-10T10:07:57.870Z,23.33
2022-09-10T10:10:25.501Z,23.35
2022-09-10T10:12:53.215Z,23.39
2022-09-10T10:15:20.892Z,23.39
2022-09-10T10:17:49.638Z,23.39
2022-09-10T10:20:17.326Z,23.39
2022-09-10T10:22:45.353Z,23.39
2022-09-10T10:25:13.085Z,23.36
2022-09-10T10:27:41.489Z,23.34
2022-09-10T10:30:11.252Z,23.35
2022-09-10T10:32:39.119Z,23.35
2022-09-10T10:35:06.929Z,23.35
2022-09-10T10:37:34.809Z,23.35
2022-09-10T10:40:02.605Z,23.33
2022-09-10T10:42:30.350Z,23.33
2022-09-10T10:44:58.023Z,23.33
2022-09-10T10:47:25.691Z,23.33
2022-09-10T10:49:53.389Z,23.34
2022-09-10T10:52:21.119Z,23.35
2022-09-10T10:54:48.815Z,23.36
2022-09-10T10:57:16.476Z,23.35
2022-09-10T10:59:44.635Z,23.34
2022-09-10T11:02:14.005Z,23.36
2022-09-10T11:04:41.904Z,23.35
2022-09-10T11:07:09.578Z,23.35
2022-09-10T11:09:39.227Z,23.36
2022-09-10T11:12:06.894Z,23.37
2022-09-10T11:14:35.954Z,23.40
2022-09-10T11:17:03.666Z,23.39
2022-09-10T11:19:35.645Z,23.40
2022-09-10T11:22:03.335Z,23.41
2022-09-10T11:24:31.130Z,23.44
2022-09-10T11:26:58.969Z,23.46
2022-09-10T11:29:27.249Z,23.49
2022-09-10T11:31:54.911Z,23.50
2022-09-10T11:34:22.726Z,23.49
2022-09-10T11:36:50.393Z,23.49
2022-09-10T11:39:18.261Z,23.48
2022-09-10T11:41:46.028Z,23.49
2022-09-10T11:44:14.545Z,23.48
2022-09-10T11:46:42.379Z,23.44
2022-09-10T11:49:10.075Z,23.45
2022-09-10T11:51:38.020Z,23.50
2022-09-10T11:54:05.692Z,23.50
2022-09-10T11:56:33.564Z,23.50
2022-09-10T11:59:04.834Z,23.51
2022-09-10T12:01:32.714Z,23.51
2022-09-10T12:04:00.703Z,23.51
2022-09-10T12:06:28.491Z,23.51
2022-09-10T12:08:56.983Z,23.52
2022-09-10T12:11:25.542Z,23.52
2022-09-10T12:13:53.514Z,23.51
2022-09-10T12:16:21.320Z,23.51
2022-09-10T12:18:49.023Z,23.48
2022-09-10T12:21:16.716Z,23.49
2022-09-10T12:23:44.542Z,23.47
2022-09-10T12:26:12.209Z,23.46
2022-09-10T12:28:40.048Z,23.48
2022-09-10T12:31:09.293Z,23.48
2022-09-10T12:33:37.012Z,23.49
2022-09-10T12:36:04.763Z,23.52
2022-09-10T12:38:33.766Z,23.51
2022-09-10T12:41:02.109Z,23.50
2022-09-10T12:43:29.789Z,23.48
2022-09-10T12:45:57.611Z,23.47
2022-09-10T12:48:27.143Z,23.47
2022-09-10T12:50:54.932Z,23.46
2022-09-10T12:53:23.367Z,23.44
2022-09-10T12:55:51.161Z,23.43
2022-09-10T12:58:18.913Z,23.44
2022-09-10T13:00:46.749Z,23.45
2022-09-10T13:03:15.115Z,23.44
2022-09-10T13:05:42.839Z,23.44
2022-09-10T13:08:10.549Z,23.44
2022-09-10T13:10:38.537Z,23.43
2022-09-10T13:13:07.107Z,23.44
2022-09-10T13:15:35.449Z,23.48
2022-09-10T13:18:03.213Z,23.47
2022-09-10T13:20:30.870Z,23.46
2022-09-10T13:22:58.725Z,23.46
2022-09-10T13:25:26.375Z,23.49
2022-09-10T13:27:54.096Z,23.51
2022-09-10T13:30:21.746Z,23.55
2022-09-10T13:32:49.494Z,23.57
2022-09-10T13:35:17.243Z,23.60
2022-09-10T13:37:44.990Z,23.61
2022-09-10T13:40:13.080Z,23.60
2022-09-10T13:42:42.346Z,23.62
2022-09-10T13:45:10.429Z,23.62
2022-09-10T13:47:38.547Z,23.62
2022-09-10T13:50:06.241Z,23.61
2022-09-10T13:52:34.776Z,23.63
2022-09-10T13:55:02.558Z,23.63
2022-09-10T13:57:30.581Z,23.61
2022-09-10T13:59:58.727Z,23.63
2022-09-10T14:02:26.511Z,23.63
2022-09-10T14:04:54.290Z,23.61
2022-09-10T14:07:22.064Z,23.58
2022-09-10T14:09:49.839Z,23.58
2022-09-10T14:12:17.590Z,23.58
2022-09-10T14:14:45.448Z,23.55
2022-09-10T14:17:13.141Z,23.54
2022-09-10T14:19:40.901Z,23.52
2022-09-10T14:22:10.138Z,23.52
2022-09-10T14:24:37.927Z,23.51
2022-09-10T14:27:05.675Z,23.51
2022-09-10T14:29:33.365Z,23.49
2022-09-10T14:32:01.135Z,23.48
2022-09-10T14:34:28.909Z,23.49
2022-09-10T14:36:58.807Z,23.50
2022-09-10T14:39:26.559Z,23.48
2022-09-10T14:41:55.236Z,23.49
2022-09-10T14:44:22.903Z,23.46
2022-09-10T14:46:51.181Z,23.45
2022-09-10T14:49:19.210Z,23.44
2022-09-10T14:51:47.288Z,23.43
2022-09-10T14:54:15.615Z,23.42
2022-09-10T14:56:43.931Z,23.42
2022-09-10T14:59:11.619Z,23.41
2022-09-10T15:01:40.090Z,23.41
2022-09-10T15:04:07.875Z,23.40
2022-09-10T15:06:36.091Z,23.39
2022-09-10T15:09:03.736Z,23.41
2022-09-10T15:11:31.422Z,23.40
2022-09-10T15:14:00.856Z,23.40
2022-09-10T15:16:33.274Z,23.41
2022-09-10T15:19:01.496Z,23.39
2022-09-10T15:21:29.197Z,23.37
2022-09-10T16:21:41.534Z,23.27
2022-09-10T16:24:09.238Z,23.30
2022-09-10T16:26:36.981Z,23.29
2022-09-10T16:29:05.837Z,23.30
2022-09-10T16:31:34.218Z,23.30
2022-09-10T16:34:02.588Z,23.31
2022-09-10T16:36:31.243Z,23.30
2022-09-10T16:38:58.973Z,23.29
2022-09-10T16:41:27.009Z,23.29
2022-09-10T16:43:55.140Z,23.29
2022-09-10T16:46:23.363Z,23.29
2022-09-10T16:48:51.644Z,23.28
2022-09-10T16:51:19.711Z,23.28
2022-09-10T16:53:47.978Z,23.28
2022-09-10T16:56:15.669Z,23.26
2022-09-10T16:58:43.356Z,23.27
2022-09-10T17:01:11.130Z,23.26
2022-09-10T17:03:38.824Z,23.25
2022-09-10T17:06:06.627Z,23.27
2022-09-10T17:08:34.283Z,23.25
2022-09-10T17:11:02.466Z,23.26
2022-09-10T17:13:30.542Z,23.26
2022-09-10T17:15:59.129Z,23.25
2022-09-10T17:18:26.868Z,23.24
2022-09-10T17:20:54.541Z,23.25
2022-09-10T17:23:22.340Z,23.25
2022-09-10T17:25:50.022Z,23.26
2022-09-10T17:28:17.947Z,23.24
2022-09-10T17:30:45.670Z,23.24
2022-09-10T17:33:13.397Z,23.24
2022-09-10T17:35:41.062Z,23.23
2022-09-10T17:38:08.808Z,23.23
2022-09-10T17:40:38.609Z,23.23
2022-09-10T17:43:06.817Z,23.24
2022-09-10T17:45:34.696Z,23.22
2022-09-10T17:48:02.365Z,23.22
2022-09-10T17:50:30.454Z,23.22
2022-09-10T17:52:58.278Z,23.21
2022-09-10T17:55:27.755Z,23.21
2022-09-10T17:57:58.832Z,23.22
2022-09-10T18:00:26.571Z,23.21
2022-09-10T18:02:54.429Z,23.20
2022-09-10T18:05:22.166Z,23.20
2022-09-10T18:07:49.867Z,23.21
2022-09-10T18:10:17.907Z,23.21
2022-09-10T18:12:45.606Z,23.21
2022-09-10T18:15:13.310Z,23.20
2022-09-10T18:17:40.954Z,23.19
2022-09-10T18:20:08.651Z,23.21
2022-09-10T18:22:38.111Z,23.21
2022-09-10T18:25:06.734Z,23.20
2022-09-10T18:27:34.498Z,23.20
2022-09-10T18:30:02.236Z,23.20
2022-09-10T18:32:30.122Z,23.19
2022-09-10T18:34:57.785Z,23.20
2022-09-10T18:37:25.857Z,23.21
2022-09-10T18:39:53.727Z,23.19
2022-09-10T18:42:21.463Z,23.19
2022-09-10T18:44:49.153Z,23.21
2022-09-10T18:47:34.008Z,23.19
2022-09-10T18:50:04.588Z,23.18
2022-09-10T18:52:32.448Z,23.17
2022-09-10T18:55:00.129Z,23.19
2022-09-10T18:57:27.988Z,23.18
2022-09-10T18:59:55.675Z,23.18
2022-09-10T19:02:24.040Z,23.17
2022-09-10T19:05:10.126Z,23.18
2022-09-10T19:07:38.430Z,23.16
2022-09-10T19:50:20.285Z,23.09
2022-09-10T19:52:50.723Z,23.11
2022-09-10T19:55:18.417Z,23.11
2022-09-10T19:57:46.083Z,23.11
2022-09-10T20:00:36.150Z,23.10
2022-09-10T20:03:02.834Z,23.09
2022-09-10T20:05:31.209Z,23.09
2022-09-10T20:07:59.090Z,23.11
2022-09-10T20:10:26.875Z,23.10
2022-09-10T20:12:54.549Z,23.11
2022-09-10T20:15:22.261Z,23.10
2022-09-10T20:17:51.243Z,23.10
2022-09-10T20:20:19.695Z,23.11
2022-09-10T20:22:47.368Z,23.10
2022-09-10T20:25:15.155Z,23.08
2022-09-10T20:27:42.901Z,23.09
2022-09-10T20:30:10.636Z,23.10
2022-09-10T20:32:38.704Z,23.08
2022-09-10T20:35:06.378Z,23.08
2022-09-10T20:37:34.482Z,23.10
2022-09-10T20:40:02.346Z,23.09
2022-09-10T20:42:32.585Z,23.09
2022-09-10T20:45:00.271Z,23.08
2022-09-10T20:47:31.269Z,23.08
2022-09-10T20:49:59.174Z,23.08
2022-09-10T20:52:27.205Z,23.09
2022-09-10T20:54:55.738Z,23.09
2022-09-10T20:57:23.402Z,23.08
2022-09-10T20:59:51.047Z,23.09
2022-09-10T21:02:19.027Z,23.08
2022-09-10T21:04:46.756Z,23.08
2022-09-10T21:07:15.113Z,23.09
2022-09-10T21:09:42.752Z,23.07
2022-09-10T21:12:11.686Z,23.07
2022-09-10T21:14:39.442Z,23.07
2022-09-10T21:17:08.792Z,23.07
2022-09-10T21:19:36.988Z,23.07
2022-09-10T21:22:04.857Z,23.06
2022-09-10T21:24:32.534Z,23.07
2022-09-10T21:27:00.367Z,23.07
2022-09-10T21:29:28.042Z,23.08
2022-09-10T21:31:56.869Z,23.07
2022-09-10T21:34:24.822Z,23.08
2022-09-10T21:36:52.629Z,23.07
2022-09-10T21:39:20.294Z,23.08
2022-09-10T21:41:48.085Z,23.08
2022-09-10T21:44:15.776Z,23.07
2022-09-10T21:46:43.554Z,23.05
2022-09-10T21:49:11.243Z,23.07
2022-09-10T21:51:38.902Z,23.07
2022-09-10T21:54:06.695Z,23.07
2022-09-10T21:56:34.363Z,23.06
2022-09-10T21:59:02.301Z,23.06
2022-09-10T22:01:30.195Z,23.06
2022-09-10T22:03:57.965Z,23.05
2022-09-10T22:06:25.659Z,23.04
2022-09-10T22:08:53.650Z,23.03
2022-09-10T22:11:24.347Z,23.03
2022-09-10T22:13:52.076Z,23.03
2022-09-10T22:16:20.862Z,23.03
2022-09-10T22:18:48.656Z,23.03
2022-09-10T22:21:16.618Z,23.03
2022-09-10T22:23:44.514Z,23.01
2022-09-10T22:26:12.290Z,23.01
2022-09-10T22:28:40.275Z,23.01
2022-09-10T22:31:08.158Z,23.00
2022-09-10T22:33:36.248Z,23.01
2022-09-10T22:36:03.982Z,23.01
2022-09-10T22:38:31.683Z,23.00
2022-09-10T22:40:59.614Z,23.00
2022-09-10T22:43:27.328Z,23.00
2022-09-10T22:45:55.598Z,23.00
2022-09-10T22:48:23.279Z,23.00
2022-09-10T22:50:51.042Z,23.01
2022-09-10T22:53:18.862Z,23.01
2022-09-10T22:55:46.577Z,23.01
2022-09-10T22:58:14.937Z,23.00
2022-09-10T23:00:42.629Z,23.01
2022-09-10T23:03:11.590Z,23.02
2022-09-10T23:05:39.312Z,23.00
2022-09-10T23:08:07.890Z,23.00
2022-09-10T23:10:35.590Z,23.00
2022-09-10T23:13:04.345Z,22.99
2022-09-10T23:15:32.481Z,22.99
2022-09-10T23:18:00.491Z,22.99
2022-09-10T23:20:28.242Z,22.98
2022-09-10T23:22:55.963Z,22.98
2022-09-10T23:25:23.724Z,22.98
2022-09-10T23:27:51.788Z,22.99
2022-09-10T23:30:19.624Z,22.99
2022-09-10T23:32:47.363Z,23.00
2022-09-10T23:35:15.185Z,22.98
2022-09-10T23:37:44.202Z,23.00
2022-09-10T23:40:14.099Z,22.98
2022-09-10T23:42:41.911Z,22.97
2022-09-10T23:45:09.794Z,22.97
2022-09-10T23:47:37.653Z,22.98
2022-09-10T23:50:06.220Z,22.98
2022-09-10T23:52:33.919Z,22.98
2022-09-10T23:55:01.640Z,22.98
2022-09-10T23:57:29.441Z,22.97
2022-09-10T23:59:57.137Z,22.95
